KBBD/BBD METAR and TAF weather

Enter ICAO airport designator
Station Type Date Time Source
KBBD METAR 2021/02/25 15:55 UTC NOAA

KBBD 251555Z AUTO 05011KT 10SM OVC022 11/M01 A3017 RMK AO2


Station Type Date Time Source
KBBD Decoded METAR 2021/02/25 15:55 UTC NOAA

Brady, Curtis Field Airport, TX, United States (KBBD) 31-10-45N 099-19-26W
Feb 25, 2021 - 10:55 AM EST / 2021.02.25 1555 UTC
Wind: from the NE (050 degrees) at 13 MPH (11 KT):0
Visibility: 10 mile(s):0
Sky conditions: overcast
Temperature: 51 F (11 C)
Dew Point: 30 F (-1 C)
Relative Humidity: 43%
Pressure (altimeter): 30.17 in. Hg (1021 hPa)
ob: KBBD 251555Z AUTO 05011KT 10SM OVC022 11/M01 A3017 RMK AO2
cycle: 16

Station Type Date Time Source
KBBD TAF 2021/02/25 13:39 UTC NOAA

TAF
AMD KBBD 251236Z 2513/2612 03008KT P6SM BKN025
FM251800 03007KT P6SM OVC015
FM252100 01008KT 6SM BR OVC010
FM260000 36009KT 5SM BR VCSH OVC008
FM260700 34008KT 4SM BR OVC005

Example: see airport list